Time;durP1;ratioP1;P1;durP2;ratioP2;P2;SDS_P1;SDS_P2;PMS_P1;PMS_P2;Temp;Humidity;BMP_temperature;BMP_pressure;BME280_temperature;BME280_humidity;BME280_pressure;Samples;Min_cycle;Max_cycle;Signal;HPM_P1;HPM_P2
2022/07/04 00:01:24;;;;;;;6.65;5.18;;;13.70;99.90;;;;;;5087919;28;20044;-63
2022/07/04 00:03:50;;;;;;;6.25;5.65;;;13.70;99.90;;;;;;5088786;28;20483;-64
2022/07/04 00:06:16;;;;;;;6.20;5.05;;;13.70;99.90;;;;;;5088839;28;20490;-63
2022/07/04 00:08:41;;;;;;;6.13;4.90;;;13.70;99.90;;;;;;5087499;28;20119;-64
2022/07/04 00:11:07;;;;;;;7.30;6.18;;;13.70;99.90;;;;;;5089253;28;20402;-64
2022/07/04 00:13:33;;;;;;;5.68;5.18;;;13.70;99.90;;;;;;5088059;28;20089;-65
2022/07/04 00:15:58;;;;;;;7.53;5.32;;;13.60;99.90;;;;;;5087664;28;20093;-64
2022/07/04 00:18:25;;;;;;;5.10;4.57;;;13.60;99.90;;;;;;5088899;28;21519;-64
2022/07/04 00:20:52;;;;;;;5.57;5.07;;;13.60;99.90;;;;;;5088856;28;20107;-64
2022/07/04 00:23:18;;;;;;;6.10;5.47;;;13.60;99.90;;;;;;5087623;28;20115;-64
2022/07/04 00:25:44;;;;;;;5.80;5.30;;;13.60;99.90;;;;;;5090224;28;20127;-63
2022/07/04 00:28:09;;;;;;;5.07;4.68;;;13.60;99.90;;;;;;5091177;28;20066;-63
2022/07/04 00:30:35;;;;;;;6.40;5.20;;;13.50;99.90;;;;;;5092618;28;20860;-63
2022/07/04 00:33:00;;;;;;;6.68;5.03;;;13.50;99.90;;;;;;5092402;28;20039;-64
2022/07/04 00:35:26;;;;;;;5.85;5.25;;;13.50;99.90;;;;;;5091168;28;20040;-64
2022/07/04 00:37:52;;;;;;;6.10;5.07;;;13.50;99.90;;;;;;5092125;28;20032;-64
2022/07/04 00:40:17;;;;;;;6.22;5.60;;;13.40;99.90;;;;;;5092427;28;20394;-64
2022/07/04 00:42:43;;;;;;;7.07;3.63;;;13.50;99.90;;;;;;5092113;28;20035;-63
2022/07/04 00:45:09;;;;;;;5.78;4.30;;;13.50;99.90;;;;;;5092214;28;20032;-64
2022/07/04 00:47:35;;;;;;;6.25;4.07;;;13.50;99.90;;;;;;5092331;28;20415;-64
2022/07/04 00:50:00;;;;;;;5.63;4.03;;;13.40;99.90;;;;;;5092171;28;20039;-63
2022/07/04 00:52:26;;;;;;;6.22;4.45;;;13.40;99.90;;;;;;5091063;28;20048;-64
2022/07/04 00:54:52;;;;;;;5.40;4.30;;;13.40;99.90;;;;;;5090806;28;20055;-64
2022/07/04 00:57:18;;;;;;;6.13;4.95;;;13.40;99.90;;;;;;5090528;28;20040;-64
2022/07/04 00:59:43;;;;;;;5.50;5.00;;;13.30;99.90;;;;;;5090903;28;20032;-64
2022/07/04 01:02:09;;;;;;;4.78;4.38;;;13.30;99.90;;;;;;5092051;28;20382;-63
2022/07/04 01:04:35;;;;;;;4.78;4.38;;;13.20;99.90;;;;;;5092083;28;20032;-63
2022/07/04 01:07:01;;;;;;;5.40;4.40;;;13.20;99.90;;;;;;5090539;28;20100;-64
2022/07/04 01:09:27;;;;;;;5.05;4.43;;;13.20;99.90;;;;;;5090496;28;20047;-64
2022/07/04 01:11:52;;;;;;;4.97;4.38;;;13.20;99.90;;;;;;5090690;28;20036;-64
2022/07/04 01:14:18;;;;;;;5.13;4.00;;;13.20;99.90;;;;;;5090175;28;20036;-64
2022/07/04 01:16:44;;;;;;;4.50;4.10;;;13.10;99.90;;;;;;5091895;28;20031;-64
2022/07/04 01:19:09;;;;;;;4.72;3.85;;;13.10;99.90;;;;;;5090246;28;20055;-63
2022/07/04 01:21:35;;;;;;;4.18;3.78;;;13.10;99.90;;;;;;5090499;28;20089;-64
2022/07/04 01:24:01;;;;;;;8.85;5.03;;;13.10;99.90;;;;;;5091695;28;20067;-64
2022/07/04 01:26:30;;;;;;;4.72;4.32;;;13.10;99.90;;;;;;5091094;28;20079;-64
2022/07/04 01:28:55;;;;;;;4.72;4.30;;;13.10;99.90;;;;;;5090092;28;20036;-63
2022/07/04 01:31:21;;;;;;;6.05;4.60;;;13.10;99.90;;;;;;5091156;28;20097;-64
2022/07/04 01:33:47;;;;;;;5.57;4.18;;;13.10;99.90;;;;;;5091673;28;20040;-63
2022/07/04 01:36:13;;;;;;;5.25;4.28;;;13.00;99.90;;;;;;5090918;28;20074;-63
2022/07/04 01:38:38;;;;;;;4.78;4.00;;;13.10;99.90;;;;;;5090348;28;20039;-63
2022/07/04 01:41:04;;;;;;;5.80;4.03;;;13.00;99.90;;;;;;5090184;28;20174;-64
2022/07/04 01:43:29;;;;;;;5.10;4.00;;;13.00;99.90;;;;;;5089841;28;20044;-64
2022/07/04 01:45:55;;;;;;;4.47;3.88;;;13.00;99.90;;;;;;5091230;28;20135;-64
2022/07/04 01:48:21;;;;;;;4.38;4.00;;;12.90;99.90;;;;;;5091135;28;20043;-64
2022/07/04 01:50:46;;;;;;;4.70;3.85;;;12.90;99.90;;;;;;5089340;28;20391;-65
2022/07/04 01:53:12;;;;;;;5.13;3.95;;;12.90;99.90;;;;;;5090930;28;20115;-64
2022/07/04 01:55:37;;;;;;;6.15;4.55;;;12.90;99.90;;;;;;5089423;28;20036;-63
2022/07/04 01:58:03;;;;;;;4.43;4.03;;;12.90;99.90;;;;;;5121536;27;20048;-63
2022/07/04 02:03:13;;;;;;;7.40;4.32;;;12.90;99.90;;;;;;5090103;28;20051;-64
2022/07/04 02:05:39;;;;;;;5.03;4.40;;;12.90;99.90;;;;;;5089376;28;20399;-63
2022/07/04 02:08:06;;;;;;;4.00;3.60;;;12.80;99.90;;;;;;5087985;28;20452;-64
2022/07/04 02:10:32;;;;;;;4.80;4.07;;;12.80;99.90;;;;;;5089387;28;20063;-64
2022/07/04 02:13:01;;;;;;;4.85;3.92;;;12.80;99.90;;;;;;5090330;28;20387;-63
2022/07/04 02:15:31;;;;;;;4.53;4.13;;;12.80;99.90;;;;;;5090621;28;20118;-64
2022/07/04 02:17:57;;;;;;;3.70;3.40;;;12.80;99.90;;;;;;5090087;28;20032;-63
2022/07/04 02:20:23;;;;;;;4.95;3.83;;;12.80;99.90;;;;;;5089434;28;20043;-64
2022/07/04 02:22:49;;;;;;;4.07;3.70;;;12.70;99.90;;;;;;5088605;28;20044;-63
2022/07/04 02:25:15;;;;;;;4.45;3.92;;;12.70;99.90;;;;;;5071863;28;20051;-65
2022/07/04 02:27:41;;;;;;;4.20;3.80;;;12.70;99.90;;;;;;5090320;28;20065;-64
2022/07/04 02:30:07;;;;;;;5.18;3.95;;;12.70;99.90;;;;;;5088857;28;20125;-63
2022/07/04 02:32:34;;;;;;;4.45;4.05;;;12.60;99.90;;;;;;5072367;28;20475;-64
2022/07/04 02:34:59;;;;;;;5.72;4.10;;;12.70;99.90;;;;;;5089892;28;20058;-64
2022/07/04 02:37:25;;;;;;;5.85;3.75;;;12.60;99.90;;;;;;5090032;28;20024;-63
2022/07/04 02:39:51;;;;;;;6.40;4.13;;;12.60;99.90;;;;;;5090249;28;20028;-64
2022/07/04 02:42:16;;;;;;;4.75;4.13;;;12.60;99.90;;;;;;5088719;28;20113;-63
2022/07/04 02:44:43;;;;;;;6.30;3.67;;;12.60;99.90;;;;;;5089109;28;20042;-64
2022/07/04 02:47:09;;;;;;;4.28;3.70;;;12.60;99.90;;;;;;5088490;28;20044;-63
2022/07/04 02:49:35;;;;;;;6.20;4.00;;;12.60;99.90;;;;;;5088681;28;20043;-63
2022/07/04 02:52:00;;;;;;;4.85;4.05;;;12.50;99.90;;;;;;5088006;28;20083;-64
2022/07/04 02:54:26;;;;;;;4.72;4.30;;;12.50;99.90;;;;;;5122539;27;20478;-64
2022/07/04 02:56:52;;;;;;;4.38;3.97;;;12.50;99.90;;;;;;5088953;28;20044;-63
2022/07/04 02:59:17;;;;;;;5.03;4.40;;;12.50;99.90;;;;;;5089470;28;20028;-63
2022/07/04 03:01:43;;;;;;;6.07;4.20;;;12.50;99.90;;;;;;5089911;28;20105;-63
2022/07/04 03:04:08;;;;;;;5.97;4.53;;;12.50;99.90;;;;;;5072020;28;20056;-63
2022/07/04 03:06:34;;;;;;;6.65;4.35;;;12.40;99.90;;;;;;5071539;28;20048;-63
2022/07/04 03:09:00;;;;;;;6.28;4.40;;;12.50;99.90;;;;;;5089947;28;20505;-64
2022/07/04 03:11:25;;;;;;;6.13;4.57;;;12.50;99.90;;;;;;5089333;28;20032;-63
2022/07/04 03:13:51;;;;;;;4.80;4.28;;;12.50;99.90;;;;;;5088401;28;20036;-64
2022/07/04 03:16:17;;;;;;;4.75;4.05;;;12.50;99.90;;;;;;5089428;28;20032;-64
2022/07/04 03:18:43;;;;;;;4.82;4.43;;;12.50;99.90;;;;;;5088327;28;20377;-64
2022/07/04 03:21:09;;;;;;;4.60;4.20;;;12.50;99.90;;;;;;5089740;28;20047;-63
2022/07/04 03:23:34;;;;;;;5.38;4.55;;;12.40;99.90;;;;;;5089318;28;20051;-63
2022/07/04 03:26:01;;;;;;;4.95;4.45;;;12.40;99.90;;;;;;5089718;28;20513;-64
2022/07/04 03:28:27;;;;;;;4.93;4.47;;;12.40;99.90;;;;;;5087965;28;20052;-64
2022/07/04 03:30:53;;;;;;;5.60;4.45;;;12.40;99.90;;;;;;5089751;28;20043;-64
2022/07/04 03:33:19;;;;;;;5.30;4.80;;;12.40;99.90;;;;;;5088091;28;20036;-64
2022/07/04 03:35:45;;;;;;;5.10;4.60;;;12.40;99.90;;;;;;5088004;28;20043;-64
2022/07/04 03:38:11;;;;;;;5.38;4.88;;;12.40;99.90;;;;;;5089555;28;20036;-64
2022/07/04 03:40:38;;;;;;;5.68;4.78;;;12.40;99.90;;;;;;5089084;28;20032;-63
2022/07/04 03:43:06;;;;;;;6.93;5.10;;;12.40;99.90;;;;;;5088132;28;20380;-64
2022/07/04 03:45:32;;;;;;;5.82;5.07;;;12.50;99.90;;;;;;5088227;28;20048;-63
2022/07/04 03:47:58;;;;;;;5.93;5.32;;;12.50;99.90;;;;;;5088183;28;20047;-63
2022/07/04 03:50:24;;;;;;;6.57;5.90;;;12.50;99.90;;;;;;5089439;28;21464;-63
2022/07/04 03:52:49;;;;;;;7.25;6.22;;;12.60;99.90;;;;;;5088977;28;20101;-63
2022/07/04 03:55:15;;;;;;;8.32;7.05;;;12.60;99.90;;;;;;5089407;28;20082;-64
2022/07/04 03:57:41;;;;;;;6.80;6.10;;;12.60;99.90;;;;;;5087909;28;20032;-63
2022/07/04 04:00:09;;;;;;;8.15;6.32;;;12.70;99.90;;;;;;5071790;28;20048;-63
2022/07/04 04:02:35;;;;;;;9.98;7.43;;;12.70;99.90;;;;;;5093054;28;20131;-64
2022/07/04 04:07:45;;;;;;;11.82;8.10;;;12.90;99.90;;;;;;5091339;28;20097;-63
2022/07/04 04:10:11;;;;;;;9.57;8.52;;;12.90;99.90;;;;;;5093024;28;20028;-63
2022/07/04 04:12:36;;;;;;;11.15;8.57;;;13.00;99.90;;;;;;5093282;28;20036;-64
2022/07/04 04:15:02;;;;;;;12.05;9.27;;;13.00;99.90;;;;;;5092356;28;20032;-64
2022/07/04 04:17:28;;;;;;;11.93;9.95;;;13.10;99.90;;;;;;5092813;28;20040;-64
2022/07/04 04:19:54;;;;;;;12.05;9.88;;;13.10;99.90;;;;;;5091209;28;20055;-64
2022/07/04 04:22:19;;;;;;;9.95;8.95;;;13.20;99.90;;;;;;5092844;28;20035;-63
2022/07/04 04:24:45;;;;;;;9.90;8.32;;;13.20;99.90;;;;;;5092399;28;20046;-64
2022/07/04 04:27:11;;;;;;;11.98;8.30;;;13.30;99.90;;;;;;5090560;28;20040;-64
2022/07/04 04:29:36;;;;;;;10.30;8.13;;;13.30;99.90;;;;;;5092612;28;20040;-63
2022/07/04 04:32:02;;;;;;;10.65;7.95;;;13.40;99.90;;;;;;5092243;28;20540;-64
2022/07/04 04:34:28;;;;;;;8.43;6.85;;;13.50;99.90;;;;;;5092591;28;20039;-63
2022/07/04 04:36:53;;;;;;;7.32;5.80;;;13.60;99.90;;;;;;5091304;28;20399;-63
2022/07/04 04:39:19;;;;;;;7.50;6.63;;;13.70;99.90;;;;;;5123143;27;20059;-63
2022/07/04 04:41:44;;;;;;;8.52;5.90;;;13.70;99.90;;;;;;5092184;28;20044;-64
2022/07/04 04:44:10;;;;;;;6.90;5.38;;;13.80;99.90;;;;;;5091062;28;20051;-63
2022/07/04 04:46:36;;;;;;;7.53;5.00;;;13.90;99.90;;;;;;5090815;28;20087;-64
2022/07/04 04:49:01;;;;;;;8.60;5.03;;;13.90;99.90;;;;;;5092013;28;20061;-64
2022/07/04 04:51:27;;;;;;;6.45;5.00;;;14.00;99.90;;;;;;5092096;28;20123;-64
2022/07/04 04:53:53;;;;;;;6.45;5.28;;;14.00;99.90;;;;;;5091089;28;20058;-64
2022/07/04 04:56:18;;;;;;;7.28;5.13;;;14.10;99.90;;;;;;5091790;28;20036;-65
2022/07/04 04:58:44;;;;;;;6.00;4.68;;;14.10;99.90;;;;;;5092190;28;20490;-63
2022/07/04 05:01:09;;;;;;;9.85;5.03;;;14.20;99.90;;;;;;5091858;28;20040;-64
2022/07/04 05:03:35;;;;;;;8.02;5.13;;;14.20;99.90;;;;;;5091732;28;20085;-64
2022/07/04 05:06:01;;;;;;;9.55;5.70;;;14.20;99.90;;;;;;5090506;28;20043;-64
2022/07/04 05:08:27;;;;;;;4.80;4.30;;;14.20;99.90;;;;;;5091615;28;20047;-64
2022/07/04 05:10:52;;;;;;;7.10;4.93;;;14.20;99.90;;;;;;5091655;28;20082;-64
2022/07/04 05:13:19;;;;;;;7.10;5.15;;;14.30;99.90;;;;;;5091458;28;20032;-64
2022/07/04 05:15:46;;;;;;;6.57;5.25;;;14.30;99.90;;;;;;5091294;28;20036;-64
2022/07/04 05:18:12;;;;;;;10.05;5.80;;;14.30;99.90;;;;;;5090765;28;20619;-64
2022/07/04 05:20:39;;;;;;;6.63;4.90;;;14.40;99.90;;;;;;5090028;28;20058;-65
2022/07/04 05:23:05;;;;;;;8.88;5.10;;;14.40;99.90;;;;;;5091805;28;20043;-64
2022/07/04 05:25:31;;;;;;;5.40;4.90;;;14.50;99.90;;;;;;5089821;28;20073;-64
2022/07/04 05:27:56;;;;;;;7.50;4.93;;;14.60;99.90;;;;;;5091358;28;20054;-64
2022/07/04 05:30:22;;;;;;;7.93;5.22;;;14.70;99.90;;;;;;5089736;28;20043;-64
2022/07/04 05:32:47;;;;;;;6.97;4.97;;;14.80;99.90;;;;;;5091084;28;20376;-64
2022/07/04 05:35:13;;;;;;;7.25;5.20;;;14.80;99.90;;;;;;5089774;28;20075;-64
2022/07/04 05:37:39;;;;;;;10.88;5.63;;;14.80;99.90;;;;;;5091230;28;20096;-64
2022/07/04 05:40:05;;;;;;;7.05;4.82;;;14.90;99.90;;;;;;5091400;28;20040;-63
2022/07/04 05:42:30;;;;;;;7.40;4.20;;;15.00;99.90;;;;;;5091309;28;20039;-63
2022/07/04 05:44:56;;;;;;;7.25;4.43;;;15.10;99.90;;;;;;5091141;28;20394;-64
2022/07/04 05:47:23;;;;;;;6.18;4.40;;;15.30;99.90;;;;;;5091214;28;20402;-64
2022/07/04 05:49:49;;;;;;;7.13;4.60;;;15.40;99.90;;;;;;5089438;28;20035;-64
2022/07/04 05:52:15;;;;;;;6.60;4.80;;;15.60;99.90;;;;;;5089914;28;20040;-65
2022/07/04 05:54:41;;;;;;;8.45;4.28;;;15.70;99.90;;;;;;5089733;28;20039;-63
2022/07/04 05:57:07;;;;;;;8.50;3.80;;;15.80;99.90;;;;;;5089416;28;20048;-63
2022/07/04 05:59:32;;;;;;;4.95;3.63;;;15.80;99.90;;;;;;5090737;28;20055;-64
2022/07/04 06:01:58;;;;;;;7.97;3.67;;;15.90;99.90;;;;;;5089209;28;20467;-64
2022/07/04 06:04:24;;;;;;;8.70;3.97;;;16.10;99.90;;;;;;5089789;28;20513;-64
2022/07/04 06:06:50;;;;;;;6.55;3.90;;;16.10;99.90;;;;;;5090305;28;20484;-63
2022/07/04 06:09:16;;;;;;;7.93;4.80;;;16.20;99.90;;;;;;5090259;28;20046;-64
2022/07/04 06:11:42;;;;;;;10.15;4.60;;;16.20;99.90;;;;;;5071758;28;20482;-64
2022/07/04 06:14:07;;;;;;;6.25;3.90;;;16.30;99.90;;;;;;5088786;28;20048;-64
2022/07/04 06:16:33;;;;;;;6.82;3.88;;;16.50;99.90;;;;;;5088732;28;20079;-64
2022/07/04 06:18:59;;;;;;;6.50;3.90;;;16.60;99.90;;;;;;5089789;28;20079;-64
2022/07/04 06:21:25;;;;;;;6.03;4.25;;;16.70;99.90;;;;;;5089621;28;20035;-64
2022/07/04 06:23:51;;;;;;;7.90;4.03;;;16.70;99.90;;;;;;5088327;28;20046;-63
2022/07/04 06:26:16;;;;;;;9.38;4.18;;;16.80;99.90;;;;;;5089287;28;20051;-64
2022/07/04 06:28:42;;;;;;;9.00;4.72;;;16.80;99.90;;;;;;5087670;28;20094;-64
2022/07/04 06:31:08;;;;;;;8.32;4.60;;;16.90;99.90;;;;;;5089572;28;20028;-63
2022/07/04 06:35:44;;;;;;;9.73;4.57;;;17.10;99.90;;;;;;5088105;28;20546;-64
2022/07/04 06:36:19;;;;;;;7.22;3.55;;;17.20;99.90;;;;;;5086422;28;20047;-63
2022/07/04 06:38:45;;;;;;;7.15;4.47;;;17.30;99.90;;;;;;5084011;28;20055;-63
2022/07/04 06:41:11;;;;;;;9.73;4.13;;;17.40;99.90;;;;;;5086962;28;20499;-63
2022/07/04 06:43:36;;;;;;;10.70;4.22;;;17.50;99.90;;;;;;5088532;28;20577;-65
2022/07/04 06:46:02;;;;;;;7.90;4.18;;;17.40;99.90;;;;;;5087580;28;20404;-63
2022/07/04 06:48:27;;;;;;;6.85;3.58;;;17.50;99.90;;;;;;5086020;28;20052;-64
2022/07/04 06:50:53;;;;;;;9.35;4.18;;;17.70;99.90;;;;;;5086171;28;20039;-63
2022/07/04 06:53:19;;;;;;;8.65;4.20;;;17.70;99.90;;;;;;5088544;28;20093;-63
2022/07/04 06:55:44;;;;;;;7.47;4.22;;;17.70;99.90;;;;;;5088655;28;20040;-63
2022/07/04 06:58:12;;;;;;;9.23;3.92;;;17.90;99.90;;;;;;5086192;28;20052;-63
2022/07/04 07:00:38;;;;;;;8.10;3.78;;;18.00;99.90;;;;;;5089082;28;20613;-64
2022/07/04 07:03:04;;;;;;;7.82;3.63;;;18.00;99.90;;;;;;5089429;28;20478;-64
2022/07/04 07:05:30;;;;;;;10.35;3.80;;;18.00;99.90;;;;;;5088114;28;20487;-64
2022/07/04 07:07:56;;;;;;;7.57;4.47;;;18.10;99.90;;;;;;5087545;28;20134;-64
2022/07/04 07:10:22;;;;;;;8.48;4.25;;;18.20;99.90;;;;;;5089287;28;20111;-65
2022/07/04 07:12:47;;;;;;;9.10;3.70;;;18.10;99.90;;;;;;5087117;28;20092;-65
2022/07/04 07:15:13;;;;;;;8.63;4.05;;;18.20;99.90;;;;;;5088919;28;20028;-66
2022/07/04 07:17:40;;;;;;;9.73;3.83;;;18.30;99.90;;;;;;5089346;28;20471;-66
2022/07/04 07:20:06;;;;;;;10.25;4.00;;;18.30;99.90;;;;;;5088135;28;20079;-65
2022/07/04 07:22:32;;;;;;;7.30;3.92;;;18.70;99.90;;;;;;5089308;28;20051;-65
2022/07/04 07:24:57;;;;;;;8.73;3.72;;;18.70;99.90;;;;;;5088381;28;20032;-65
2022/07/04 07:27:23;;;;;;;8.18;3.78;;;18.70;99.90;;;;;;5086065;28;20137;-64
2022/07/04 07:29:49;;;;;;;11.00;4.20;;;18.70;99.90;;;;;;5088959;28;20067;-65
2022/07/04 07:32:14;;;;;;;8.10;3.65;;;18.90;99.90;;;;;;5087318;28;20550;-64
2022/07/04 07:34:40;;;;;;;6.70;3.35;;;19.00;99.90;;;;;;5121068;27;20063;-65
2022/07/04 07:37:06;;;;;;;11.60;4.00;;;19.10;99.90;;;;;;5092697;28;20036;-65
2022/07/04 07:39:33;;;;;;;8.95;3.45;;;19.20;99.90;;;;;;5092941;28;20047;-65
2022/07/04 07:41:58;;;;;;;6.70;2.80;;;19.10;99.90;;;;;;5124964;27;20380;-65
2022/07/04 07:44:24;;;;;;;6.65;3.63;;;19.00;99.90;;;;;;5090117;28;20101;-64
2022/07/04 07:46:50;;;;;;;9.20;2.97;;;18.90;99.90;;;;;;5092741;28;20139;-64
2022/07/04 07:49:15;;;;;;;6.85;3.13;;;18.80;99.90;;;;;;5090947;28;20550;-66
2022/07/04 07:51:41;;;;;;;6.80;3.10;;;18.90;99.90;;;;;;5092713;28;20123;-64
2022/07/04 07:54:07;;;;;;;4.75;2.67;;;18.90;99.90;;;;;;5092340;28;20063;-65
2022/07/04 07:56:32;;;;;;;7.13;2.83;;;18.90;99.90;;;;;;5090710;28;20052;-64
2022/07/04 07:58:58;;;;;;;7.28;2.38;;;18.90;99.90;;;;;;5125793;27;20089;-65
2022/07/04 08:01:24;;;;;;;5.03;2.70;;;19.10;99.90;;;;;;5124515;27;20055;-65
2022/07/04 08:06:34;;;;;;;5.78;2.40;;;19.40;99.90;;;;;;5090725;28;20501;-66
2022/07/04 08:09:00;;;;;;;6.00;2.22;;;19.60;99.90;;;;;;5095325;28;20036;-65
2022/07/04 08:11:25;;;;;;;3.92;1.92;;;19.60;99.90;;;;;;5091972;28;20040;-65
2022/07/04 08:13:52;;;;;;;5.43;2.10;;;19.80;99.90;;;;;;5090917;28;20084;-65
2022/07/04 08:16:17;;;;;;;5.65;1.77;;;19.60;99.90;;;;;;5091610;28;20051;-64
2022/07/04 08:18:43;;;;;;;5.88;1.95;;;19.70;99.90;;;;;;5092655;28;20441;-65
2022/07/04 08:21:09;;;;;;;4.07;2.10;;;19.90;99.90;;;;;;5091981;28;20043;-65
2022/07/04 08:23:35;;;;;;;4.72;2.03;;;20.00;99.90;;;;;;5092354;28;20450;-65
2022/07/04 08:26:02;;;;;;;4.93;2.08;;;20.10;99.90;;;;;;5092110;28;20390;-64
2022/07/04 08:28:28;;;;;;;4.15;1.75;;;20.10;99.90;;;;;;5074004;28;20082;-65
2022/07/04 08:30:56;;;;;;;6.32;2.50;;;20.30;99.90;;;;;;5090629;28;20040;-65
2022/07/04 08:33:22;;;;;;;5.00;1.58;;;20.40;99.90;;;;;;5091940;28;20040;-65
2022/07/04 08:35:48;;;;;;;5.13;2.15;;;20.60;99.90;;;;;;5090851;28;20039;-64
2022/07/04 08:38:15;;;;;;;7.43;2.80;;;20.40;99.90;;;;;;5073387;28;20098;-65
2022/07/04 08:40:40;;;;;;;5.20;2.10;;;20.40;99.90;;;;;;5091792;28;20040;-65
2022/07/04 08:43:06;;;;;;;6.55;1.85;;;20.40;99.90;;;;;;5090691;28;20059;-65
2022/07/04 08:45:33;;;;;;;4.78;1.80;;;20.40;99.90;;;;;;5090640;28;20077;-65
2022/07/04 08:48:09;;;;;;;5.22;1.70;;;20.30;99.90;;;;;;5091384;28;20081;-65
2022/07/04 08:50:49;;;;;;;4.40;1.67;;;20.30;99.90;;;;;;5106254;28;20083;-64
2022/07/04 08:53:24;;;;;;;7.13;1.70;;;20.40;99.90;;;;;;5088939;28;20094;-65
2022/07/04 08:58:37;;;;;;;6.65;1.73;;;20.60;99.90;;;;;;5088970;28;20102;-66
2022/07/04 09:01:05;;;;;;;6.35;1.70;;;20.50;99.90;;;;;;5089667;28;20071;-65
2022/07/04 09:03:32;;;;;;;5.22;1.58;;;20.30;99.90;;;;;;5091167;28;20131;-64
2022/07/04 09:05:58;;;;;;;3.47;1.50;;;20.10;99.90;;;;;;5090001;28;20132;-65
2022/07/04 09:08:24;;;;;;;4.60;1.42;;;19.80;99.90;;;;;;5091438;28;20463;-65
2022/07/04 09:10:51;;;;;;;3.58;1.20;;;19.50;99.90;;;;;;5090298;28;20167;-64
2022/07/04 09:13:18;;;;;;;5.22;1.50;;;19.20;99.90;;;;;;5088885;28;20090;-65
2022/07/04 09:15:46;;;;;;;4.70;1.77;;;19.00;99.90;;;;;;5091627;28;20070;-66
2022/07/04 09:18:32;;;;;;;5.32;1.63;;;18.70;99.90;;;;;;5089920;28;20505;-66
2022/07/04 09:21:04;;;;;;;5.68;1.80;;;18.60;99.90;;;;;;5089972;28;20417;-65
2022/07/04 09:23:39;;;;;;;7.47;2.03;;;18.80;99.90;;;;;;5089996;28;20074;-66
2022/07/04 09:26:17;;;;;;;3.70;1.60;;;18.90;99.90;;;;;;5090920;28;20048;-65
2022/07/04 09:28:51;;;;;;;4.30;1.50;;;19.30;99.90;;;;;;5090264;28;20052;-66
2022/07/04 09:31:22;;;;;;;6.03;2.05;;;19.60;99.90;;;;;;5123986;27;20035;-66
2022/07/04 09:33:57;;;;;;;2.88;1.38;;;19.90;99.90;;;;;;5090224;28;20038;-67
2022/07/04 09:36:28;;;;;;;2.97;1.40;;;20.20;99.90;;;;;;5089631;28;20162;-66
2022/07/04 09:39:05;;;;;;;3.40;1.23;;;20.40;99.90;;;;;;5088899;28;20131;-66
2022/07/04 09:41:34;;;;;;;3.92;1.45;;;20.50;99.90;;;;;;5090088;28;20398;-66
2022/07/04 09:44:05;;;;;;;3.65;1.20;;;20.60;99.90;;;;;;5089895;28;20042;-66
2022/07/04 09:46:32;;;;;;;2.40;1.00;;;20.80;99.90;;;;;;5088898;28;20429;-65
2022/07/04 09:48:58;;;;;;;2.75;1.20;;;21.00;99.90;;;;;;5091001;28;20039;-66
2022/07/04 09:51:57;;;;;;;2.88;1.25;;;21.30;99.90;;;;;;5088759;28;20036;-66
2022/07/04 09:54:26;;;;;;;2.58;1.00;;;21.50;99.90;;;;;;5090354;28;20044;-67
2022/07/04 09:57:01;;;;;;;2.58;1.05;;;21.80;99.90;;;;;;5086240;28;20048;-65
2022/07/04 09:59:28;;;;;;;2.67;1.00;;;21.80;99.90;;;;;;5088696;28;20616;-65
2022/07/04 10:02:09;;;;;;;2.97;0.95;;;21.80;99.90;;;;;;5088577;28;20122;-66
2022/07/04 10:04:45;;;;;;;2.53;0.82;;;21.60;99.90;;;;;;5089355;28;20051;-66
2022/07/04 10:07:10;;;;;;;2.67;1.30;;;21.30;99.90;;;;;;5088364;28;20139;-66
2022/07/04 10:09:36;;;;;;;3.17;1.08;;;21.20;99.90;;;;;;5090228;28;20123;-66
2022/07/04 10:12:02;;;;;;;1.90;0.77;;;21.20;99.90;;;;;;5088127;28;20028;-66
2022/07/04 10:14:28;;;;;;;4.32;1.10;;;21.10;99.90;;;;;;5089134;28;20039;-66
2022/07/04 10:16:54;;;;;;;4.07;1.10;;;21.00;99.90;;;;;;5087534;28;20047;-66
2022/07/04 10:19:21;;;;;;;2.28;0.90;;;20.80;99.90;;;;;;5121400;27;20047;-67
2022/07/04 10:21:47;;;;;;;2.20;0.70;;;21.00;99.90;;;;;;5089854;28;20039;-68
2022/07/04 10:24:13;;;;;;;4.30;1.10;;;21.20;99.90;;;;;;5088733;28;20048;-67
2022/07/04 10:26:38;;;;;;;2.25;1.35;;;21.30;99.90;;;;;;5087739;28;20052;-66
2022/07/04 10:29:04;;;;;;;4.18;1.40;;;21.20;99.90;;;;;;5087610;28;20495;-67
2022/07/04 10:31:33;;;;;;;1.85;1.25;;;21.30;99.90;;;;;;5088559;28;20174;-66
2022/07/04 10:34:00;;;;;;;3.10;1.30;;;21.40;99.90;;;;;;5103130;28;20060;-66
2022/07/04 10:36:29;;;;;;;3.17;1.20;;;21.60;99.90;;;;;;5088081;28;20047;-67
2022/07/04 10:39:04;;;;;;;3.17;1.05;;;21.80;99.90;;;;;;5088217;28;20039;-66
2022/07/04 10:41:31;;;;;;;4.05;1.20;;;21.60;99.90;;;;;;5087771;28;20040;-65
2022/07/04 10:44:00;;;;;;;3.40;1.40;;;21.50;99.90;;;;;;5089218;28;20044;-67
2022/07/04 10:46:27;;;;;;;1.60;0.80;;;21.60;99.90;;;;;;5085097;28;20052;-67
2022/07/04 10:48:58;;;;;;;2.90;1.10;;;21.70;99.90;;;;;;5087646;28;20039;-65
2022/07/04 10:51:48;;;;;;;1.50;1.10;;;21.80;99.90;;;;;;5087722;28;20089;-66
2022/07/04 10:54:31;;;;;;;2.17;1.10;;;22.00;99.90;;;;;;5088266;28;20119;-65
2022/07/04 10:56:56;;;;;;;2.75;1.30;;;21.90;99.90;;;;;;5088570;28;20032;-66
2022/07/04 10:59:27;;;;;;;3.47;1.20;;;22.00;99.90;;;;;;5087314;28;20032;-66
2022/07/04 11:02:13;;;;;;;4.43;1.20;;;22.20;99.90;;;;;;5087288;28;20439;-66
2022/07/04 11:05:02;;;;;;;3.55;1.30;;;22.40;99.90;;;;;;5089395;28;20524;-65
2022/07/04 11:07:30;;;;;;;1.50;1.02;;;22.30;99.90;;;;;;5086804;28;20105;-67
2022/07/04 11:10:11;;;;;;;1.90;0.95;;;22.30;99.90;;;;;;5088671;28;20050;-66
2022/07/04 11:12:55;;;;;;;1.20;0.70;;;22.20;99.90;;;;;;5087671;28;20039;-66
2022/07/04 11:15:27;;;;;;;1.50;0.70;;;22.20;97.90;;;;;;5088018;28;20038;-66
2022/07/04 11:17:55;;;;;;;3.10;0.95;;;22.30;99.10;;;;;;5086992;28;20119;-67
2022/07/04 11:20:22;;;;;;;1.52;0.80;;;22.00;98.50;;;;;;5088838;28;20498;-67
2022/07/04 11:22:48;;;;;;;2.55;0.80;;;22.20;98.90;;;;;;5086184;28;20040;-66
2022/07/04 11:25:15;;;;;;;3.60;1.13;;;22.00;98.60;;;;;;5087796;28;20048;-66
2022/07/04 11:27:41;;;;;;;4.03;0.80;;;21.90;98.80;;;;;;5086857;28;20075;-67
2022/07/04 11:30:08;;;;;;;4.45;1.10;;;21.90;98.90;;;;;;5087586;28;20044;-66
2022/07/04 11:32:35;;;;;;;2.42;0.80;;;21.90;98.90;;;;;;5087268;28;20032;-67
2022/07/04 11:35:03;;;;;;;2.80;0.82;;;21.80;98.80;;;;;;5065543;28;20113;-66
2022/07/04 11:37:29;;;;;;;2.25;1.13;;;21.70;98.40;;;;;;5089146;28;20390;-66
2022/07/04 11:45:02;;;;;;;2.92;1.10;;;21.60;97.90;;;;;;5089295;28;20032;-66
2022/07/04 11:45:50;;;;;;;2.85;1.00;;;21.90;98.60;;;;;;5088335;28;20185;-66
2022/07/04 11:48:27;;;;;;;3.30;0.77;;;21.90;98.70;;;;;;5087832;28;20044;-66
2022/07/04 11:50:54;;;;;;;2.72;0.93;;;21.90;99.50;;;;;;5120705;28;20043;-66
2022/07/04 11:53:20;;;;;;;2.47;0.93;;;21.80;99.40;;;;;;5071268;28;20127;-66
2022/07/04 11:56:00;;;;;;;1.60;0.88;;;21.60;98.60;;;;;;5087679;28;20123;-66
2022/07/04 11:58:42;;;;;;;1.30;0.70;;;21.50;99.10;;;;;;5087768;28;20130;-67
2022/07/04 12:01:09;;;;;;;5.90;1.00;;;21.50;98.70;;;;;;5103218;28;20043;-66
2022/07/04 12:03:36;;;;;;;3.72;0.80;;;21.40;98.80;;;;;;5088720;28;20040;-66
2022/07/04 12:06:03;;;;;;;3.78;0.88;;;21.20;98.40;;;;;;5088551;28;20043;-66
2022/07/04 12:08:29;;;;;;;2.22;1.00;;;21.30;99.20;;;;;;5086194;28;20482;-66
2022/07/04 12:10:55;;;;;;;1.00;0.80;;;21.10;98.50;;;;;;5087163;28;20042;-66
2022/07/04 12:13:20;;;;;;;3.83;0.80;;;21.00;98.40;;;;;;5087961;28;20482;-66
2022/07/04 12:15:52;;;;;;;1.52;0.90;;;21.10;99.10;;;;;;5087118;28;20036;-66
2022/07/04 12:18:21;;;;;;;2.97;0.97;;;21.10;99.00;;;;;;5087486;28;20048;-67
2022/07/04 12:20:49;;;;;;;3.13;0.80;;;21.00;97.80;;;;;;5087191;28;20053;-67
2022/07/04 12:23:16;;;;;;;1.67;0.75;;;21.00;98.80;;;;;;5090739;28;20086;-66
2022/07/04 12:25:45;;;;;;;1.48;0.50;;;21.00;98.60;;;;;;5090869;28;20066;-66
2022/07/04 12:28:14;;;;;;;1.65;0.70;;;21.00;97.80;;;;;;5090721;28;20520;-66
2022/07/04 12:30:53;;;;;;;2.47;0.60;;;21.00;97.20;;;;;;5092247;28;20394;-66
2022/07/04 12:33:21;;;;;;;3.13;0.85;;;20.90;97.30;;;;;;5091725;28;20122;-67
2022/07/04 12:35:52;;;;;;;3.53;0.82;;;20.90;97.80;;;;;;5092124;28;20040;-66
2022/07/04 12:38:39;;;;;;;2.00;0.52;;;21.00;97.70;;;;;;5090588;28;20463;-66
2022/07/04 12:41:11;;;;;;;2.30;0.82;;;21.00;98.10;;;;;;5090370;28;20391;-65
2022/07/04 12:43:39;;;;;;;2.97;0.60;;;21.10;97.90;;;;;;5091683;28;20036;-66
2022/07/04 12:46:08;;;;;;;2.60;0.50;;;21.10;96.40;;;;;;5090660;28;20044;-66
2022/07/04 12:48:35;;;;;;;1.27;0.57;;;21.00;97.00;;;;;;5090492;28;20044;-67
2022/07/04 12:51:36;;;;;;;2.35;0.68;;;21.00;97.20;;;;;;5091665;28;20028;-65
2022/07/04 12:54:10;;;;;;;4.32;0.57;;;21.20;97.90;;;;;;5067228;28;20507;-65
2022/07/04 12:56:38;;;;;;;1.67;0.63;;;21.20;97.10;;;;;;5068773;28;20806;-65
2022/07/04 12:59:06;;;;;;;2.03;0.65;;;21.00;95.50;;;;;;5052555;28;20045;-66
2022/07/04 13:01:32;;;;;;;2.17;0.85;;;21.00;96.40;;;;;;5068742;28;20048;-65